Time,TemperatureF,DewpointF,PressureIn,WindDirection,WindDirectionDegrees,WindSpeedMPH,WindSpeedGustMPH,Humidity,HourlyPrecipIn,Conditions,Clouds,dailyrainin,SolarRadiationWatts/m^2,SoftwareType,DateUTC
2013-06-05 00:03:00,57.9,48.2,29.98,East,90,0.0,0.0,70,0.00,,---,0.00,0.00,VWS V14.01,2013-06-05 07:03:00,
2013-06-05 00:08:00,57.6,47.9,29.97,East,90,0.0,0.0,70,0.00,,---,0.00,0.00,VWS V14.01,2013-06-05 07:08:00,
2013-06-05 00:13:00,57.4,48.1,29.97,East,90,0.0,0.0,71,0.00,,---,0.00,0.00,VWS V14.01,2013-06-05 07:13:00,
2013-06-05 00:18:00,57.2,47.5,29.97,East,90,0.0,0.0,70,0.00,,---,0.00,0.00,VWS V14.01,2013-06-05 07:18:00,
2013-06-05 00:23:00,57.0,47.7,29.97,East,90,0.0,0.0,71,0.00,,---,0.00,0.00,VWS V14.01,2013-06-05 07:23:00,
2013-06-05 00:28:00,57.0,47.7,29.97,East,90,0.0,1.0,71,0.00,,---,0.00,0.00,VWS V14.01,2013-06-05 07:28:00,
2013-06-05 00:33:00,57.0,48.1,29.97,East,90,0.0,1.0,72,0.00,,---,0.00,0.00,VWS V14.01,2013-06-05 07:33:00,
2013-06-05 00:38:00,57.0,48.1,29.97,East,90,0.0,1.0,72,0.00,,---,0.00,0.00,VWS V14.01,2013-06-05 07:38:00,
2013-06-05 00:43:00,57.0,47.7,29.97,East,90,0.0,1.0,71,0.00,,---,0.00,0.00,VWS V14.01,2013-06-05 07:43:00,
2013-06-05 00:48:00,57.0,47.7,29.97,East,80,1.0,4.0,71,0.00,,---,0.00,0.00,VWS V14.01,2013-06-05 07:48:00,
2013-06-05 00:53:00,57.2,48.6,29.97,East,80,0.0,4.0,73,0.00,,---,0.00,0.00,VWS V14.01,2013-06-05 07:53:00,
2013-06-05 00:58:00,57.1,48.9,29.97,East,80,0.0,0.0,74,0.00,,---,0.00,0.00,VWS V14.01,2013-06-05 07:58:00,
2013-06-05 01:03:00,57.0,49.2,29.97,East,80,0.0,0.0,75,0.00,,---,0.00,0.00,VWS V14.01,2013-06-05 08:03:00,
2013-06-05 01:08:00,56.8,49.3,29.97,East,80,0.0,0.0,76,0.00,,---,0.00,0.00,VWS V14.01,2013-06-05 08:08:00,
2013-06-05 01:13:00,56.5,49.4,29.97,East,80,0.0,0.0,77,0.00,,---,0.00,0.00,VWS V14.01,2013-06-05 08:13:00,
2013-06-05 01:18:00,56.2,49.1,29.97,East,80,0.0,0.0,77,0.00,,---,0.00,0.00,VWS V14.01,2013-06-05 08:18:00,
2013-06-05 01:23:00,55.9,48.8,29.97,East,80,0.0,0.0,77,0.00,,---,0.00,0.00,VWS V14.01,2013-06-05 08:23:00,
2013-06-05 01:28:00,55.7,48.6,29.97,East,80,0.0,0.0,77,0.00,,---,0.00,0.00,VWS V14.01,2013-06-05 08:28:00,
2013-06-05 01:33:00,55.4,48.0,29.98,East,80,0.0,1.0,76,0.00,,---,0.00,0.00,VWS V14.01,2013-06-05 08:33:00,
2013-06-05 01:38:00,55.1,47.3,29.98,East,80,0.0,0.0,75,0.00,,---,0.00,0.00,VWS V14.01,2013-06-05 08:38:00,
2013-06-05 01:43:00,54.9,46.8,29.97,East,80,0.0,1.0,74,0.00,,---,0.00,0.00,VWS V14.01,2013-06-05 08:43:00,
2013-06-05 01:48:00,54.8,46.3,29.98,East,80,0.0,1.0,73,0.00,,---,0.00,0.00,VWS V14.01,2013-06-05 08:48:00,
2013-06-05 01:53:00,54.8,46.3,29.97,East,80,0.0,0.0,73,0.00,,---,0.00,0.00,VWS V14.01,2013-06-05 08:53:00,
2013-06-05 01:58:00,54.8,46.3,29.97,East,80,0.0,1.0,73,0.00,,---,0.00,0.00,VWS V14.01,2013-06-05 08:58:00,
2013-06-05 02:03:00,54.9,46.8,29.97,East,80,0.0,1.0,74,0.00,,---,0.00,0.00,VWS V14.01,2013-06-05 09:03:00,
2013-06-05 02:08:00,55.0,46.5,29.97,ENE,61,0.0,0.0,73,0.00,,---,0.00,0.00,VWS V14.01,2013-06-05 09:08:00,
2013-06-05 02:13:00,55.0,46.5,29.97,SE,128,0.0,1.0,73,0.00,,---,0.00,0.00,VWS V14.01,2013-06-05 09:13:00,
2013-06-05 02:18:00,55.0,47.2,29.97,ESE,114,0.0,1.0,75,0.00,,---,0.00,0.00,VWS V14.01,2013-06-05 09:18:00,
2013-06-05 02:23:00,55.1,48.0,29.97,ESE,114,0.0,1.0,77,0.00,,---,0.00,0.00,VWS V14.01,2013-06-05 09:23:00,
2013-06-05 02:28:00,55.0,48.3,29.97,ESE,114,0.0,0.0,78,0.00,,---,0.00,0.00,VWS V14.01,2013-06-05 09:28:00,
2013-06-05 02:33:00,54.9,48.2,29.97,ESE,114,0.0,0.0,78,0.00,,---,0.00,0.00,VWS V14.01,2013-06-05 09:33:00,
2013-06-05 02:38:00,54.7,48.0,29.97,ESE,114,0.0,0.0,78,0.00,,---,0.00,0.00,VWS V14.01,2013-06-05 09:38:00,
2013-06-05 02:43:00,54.5,47.5,29.97,ESE,114,0.0,0.0,77,0.00,,---,0.00,0.00,VWS V14.01,2013-06-05 09:43:00,
2013-06-05 02:48:00,54.3,47.6,29.97,ESE,114,0.0,0.0,78,0.00,,---,0.00,0.00,VWS V14.01,2013-06-05 09:48:00,
2013-06-05 02:53:00,54.1,47.4,29.97,ESE,114,0.0,0.0,78,0.00,,---,0.00,0.00,VWS V14.01,2013-06-05 09:53:00,
2013-06-05 02:58:00,54.0,47.6,29.97,ESE,114,0.0,0.0,79,0.00,,---,0.00,0.00,VWS V14.01,2013-06-05 09:58:00,
2013-06-05 03:03:00,53.9,47.9,29.97,East,88,0.0,2.0,80,0.00,,---,0.00,0.00,VWS V14.01,2013-06-05 10:03:00,
2013-06-05 03:08:00,53.9,47.9,29.97,East,86,0.0,2.0,80,0.00,,---,0.00,0.00,VWS V14.01,2013-06-05 10:08:00,
2013-06-05 03:13:00,53.8,48.4,29.97,ENE,69,0.0,1.0,82,0.00,,---,0.00,0.00,VWS V14.01,2013-06-05 10:13:00,
2013-06-05 03:18:00,53.8,48.4,29.97,ENE,69,0.0,1.0,82,0.00,,---,0.00,0.00,VWS V14.01,2013-06-05 10:18:00,
2013-06-05 03:23:00,53.7,48.7,29.97,ENE,69,0.0,0.0,83,0.00,,---,0.00,0.00,VWS V14.01,2013-06-05 10:23:00,
2013-06-05 03:28:00,53.7,48.7,29.97,ENE,69,0.0,0.0,83,0.00,,---,0.00,0.00,VWS V14.01,2013-06-05 10:28:00,
2013-06-05 03:33:00,53.6,48.9,29.96,ENE,69,0.0,0.0,84,0.00,,---,0.00,0.00,VWS V14.01,2013-06-05 10:33:00,
2013-06-05 03:38:00,53.5,48.8,29.96,ENE,69,0.0,0.0,84,0.00,,---,0.00,0.00,VWS V14.01,2013-06-05 10:38:00,
2013-06-05 03:43:00,53.4,48.7,29.96,ENE,69,0.0,0.0,84,0.00,,---,0.00,0.00,VWS V14.01,2013-06-05 10:43:00,
2013-06-05 03:48:00,53.3,48.9,29.96,ENE,69,0.0,0.0,85,0.00,,---,0.00,0.00,VWS V14.01,2013-06-05 10:48:00,
2013-06-05 03:53:00,53.1,48.7,29.97,ENE,69,0.0,0.0,85,0.00,,---,0.00,0.00,VWS V14.01,2013-06-05 10:53:00,
2013-06-05 03:58:00,53.0,48.6,29.97,ENE,69,0.0,0.0,85,0.00,,---,0.00,0.00,VWS V14.01,2013-06-05 10:58:00,
2013-06-05 04:03:00,52.9,48.8,29.97,ENE,69,0.0,0.0,86,0.00,,---,0.00,0.00,VWS V14.01,2013-06-05 11:03:00,
2013-06-05 04:08:00,52.8,48.7,29.97,ENE,69,0.0,0.0,86,0.00,,---,0.00,0.00,VWS V14.01,2013-06-05 11:08:00,
2013-06-05 04:13:00,52.7,48.6,29.97,ENE,69,0.0,0.0,86,0.00,,---,0.00,0.00,VWS V14.01,2013-06-05 11:13:00,
2013-06-05 04:18:00,52.7,48.6,29.97,ENE,69,0.0,0.0,86,0.00,,---,0.00,0.00,VWS V14.01,2013-06-05 11:18:00,
2013-06-05 04:23:00,52.6,48.8,29.97,ENE,69,0.0,0.0,87,0.00,,---,0.00,0.00,VWS V14.01,2013-06-05 11:23:00,
2013-06-05 04:28:00,52.5,48.8,29.97,ENE,69,0.0,0.0,87,0.00,,---,0.00,0.00,VWS V14.01,2013-06-05 11:28:00,
2013-06-05 04:33:00,52.4,48.7,29.97,ENE,69,0.0,0.0,87,0.00,,---,0.00,0.00,VWS V14.01,2013-06-05 11:33:00,
2013-06-05 04:38:00,52.4,49.0,29.97,ENE,69,0.0,0.0,88,0.00,,---,0.00,0.00,VWS V14.01,2013-06-05 11:38:00,
2013-06-05 04:43:00,52.4,49.0,29.98,ENE,69,0.0,0.0,88,0.00,,---,0.00,0.00,VWS V14.01,2013-06-05 11:43:00,
2013-06-05 04:48:00,52.3,48.9,29.98,ENE,69,0.0,0.0,88,0.00,,---,0.00,0.00,VWS V14.01,2013-06-05 11:48:00,
2013-06-05 04:53:00,52.4,49.0,29.97,ENE,69,0.0,0.0,88,0.00,,---,0.00,0.00,VWS V14.01,2013-06-05 11:53:00,
2013-06-05 04:58:00,52.4,49.0,29.97,ENE,69,0.0,0.0,88,0.00,,---,0.00,0.00,VWS V14.01,2013-06-05 11:58:00,
2013-06-05 05:03:00,52.3,48.9,29.97,ENE,69,0.0,0.0,88,0.00,,---,0.00,0.00,VWS V14.01,2013-06-05 12:03:00,
2013-06-05 05:09:00,52.3,48.9,29.97,ENE,69,2.0,2.0,88,0.00,,---,0.00,0.00,VWS V14.01,2013-06-05 12:09:00,
2013-06-05 05:14:00,52.4,49.3,29.97,ENE,64,0.0,2.0,89,0.00,,---,0.00,0.00,VWS V14.01,2013-06-05 12:14:00,
2013-06-05 05:19:00,52.3,48.9,29.97,ENE,64,0.0,0.0,88,0.00,,---,0.00,0.00,VWS V14.01,2013-06-05 12:19:00,
2013-06-05 05:24:00,52.4,49.3,29.97,ENE,64,0.0,1.0,89,0.00,,---,0.00,0.00,VWS V14.01,2013-06-05 12:24:00,
2013-06-05 05:29:00,52.4,49.6,29.97,ENE,64,0.0,0.0,90,0.00,,---,0.00,5.00,VWS V14.01,2013-06-05 12:29:00,
2013-06-05 05:34:00,52.5,49.7,29.97,ENE,64,0.0,1.0,90,0.00,,---,0.00,7.00,VWS V14.01,2013-06-05 12:34:00,
2013-06-05 05:39:00,52.6,49.8,29.97,ENE,64,0.0,0.0,90,0.00,,---,0.00,9.00,VWS V14.01,2013-06-05 12:39:00,
2013-06-05 05:44:00,52.6,49.8,29.97,ENE,64,0.0,0.0,90,0.00,,---,0.00,12.00,VWS V14.01,2013-06-05 12:44:00,
2013-06-05 05:49:00,52.7,49.8,29.97,ENE,64,0.0,0.0,90,0.00,,---,0.00,12.00,VWS V14.01,2013-06-05 12:49:00,
2013-06-05 05:54:00,52.8,50.0,29.97,ENE,64,0.0,0.0,90,0.00,,---,0.00,14.00,VWS V14.01,2013-06-05 12:54:00,
2013-06-05 05:59:00,52.9,50.0,29.97,ENE,64,0.0,0.0,90,0.00,,---,0.00,18.00,VWS V14.01,2013-06-05 12:59:00,
2013-06-05 06:04:00,52.9,50.0,29.97,ENE,64,0.0,2.0,90,0.00,,---,0.00,21.00,VWS V14.01,2013-06-05 13:04:00,
2013-06-05 06:09:00,53.0,50.2,29.97,ENE,64,0.0,2.0,90,0.00,,---,0.00,28.00,VWS V14.01,2013-06-05 13:09:00,
2013-06-05 06:14:00,53.1,50.2,29.97,ENE,64,0.0,0.0,90,0.00,,---,0.00,39.00,VWS V14.01,2013-06-05 13:14:00,
2013-06-05 06:19:00,53.2,50.3,29.98,ENE,64,0.0,1.0,90,0.00,,---,0.00,40.00,VWS V14.01,2013-06-05 13:19:00,
2013-06-05 06:24:00,53.5,50.6,29.98,ENE,64,0.0,1.0,90,0.00,,---,0.00,46.00,VWS V14.01,2013-06-05 13:24:00,
2013-06-05 06:29:00,53.8,50.6,29.98,NE,39,0.0,2.0,89,0.00,,---,0.00,47.00,VWS V14.01,2013-06-05 13:29:00,
2013-06-05 06:34:00,54.0,50.8,29.98,NE,39,0.0,2.0,89,0.00,,---,0.00,47.00,VWS V14.01,2013-06-05 13:34:00,
2013-06-05 06:39:00,54.2,51.0,29.98,NE,39,0.0,0.0,89,0.00,,---,0.00,60.00,VWS V14.01,2013-06-05 13:39:00,
2013-06-05 06:44:00,54.5,51.0,29.98,NE,39,0.0,0.0,88,0.00,,---,0.00,60.00,VWS V14.01,2013-06-05 13:44:00,
2013-06-05 06:49:00,54.6,51.1,29.98,NE,39,0.0,0.0,88,0.00,,---,0.00,56.00,VWS V14.01,2013-06-05 13:49:00,
2013-06-05 06:54:00,54.8,51.3,29.98,NE,39,0.0,0.0,88,0.00,,---,0.00,58.00,VWS V14.01,2013-06-05 13:54:00,
2013-06-05 06:59:00,54.9,51.4,29.98,NE,39,0.0,2.0,88,0.00,,---,0.00,56.00,VWS V14.01,2013-06-05 13:59:00,
2013-06-05 07:04:00,55.1,51.6,29.98,NE,39,0.0,2.0,88,0.00,,---,0.00,67.00,VWS V14.01,2013-06-05 14:04:00,
2013-06-05 07:09:00,55.3,51.5,29.98,NE,39,0.0,1.0,87,0.00,,---,0.00,81.00,VWS V14.01,2013-06-05 14:09:00,
2013-06-05 07:14:00,55.5,51.7,29.98,NE,39,0.0,0.0,87,0.00,,---,0.00,84.00,VWS V14.01,2013-06-05 14:14:00,
2013-06-05 07:19:00,55.9,51.8,29.98,NE,39,0.0,0.0,86,0.00,,---,0.00,86.00,VWS V14.01,2013-06-05 14:19:00,
2013-06-05 07:24:00,56.1,51.7,29.99,NE,39,0.0,0.0,85,0.00,,---,0.00,95.00,VWS V14.01,2013-06-05 14:24:00,
2013-06-05 07:29:00,56.3,51.9,29.99,NE,39,0.0,0.0,85,0.00,,---,0.00,105.00,VWS V14.01,2013-06-05 14:29:00,
2013-06-05 07:34:00,56.5,51.7,29.99,NE,39,0.0,0.0,84,0.00,,---,0.00,116.00,VWS V14.01,2013-06-05 14:34:00,
2013-06-05 07:39:00,56.8,52.3,29.99,NE,39,0.0,0.0,85,0.00,,---,0.00,127.00,VWS V14.01,2013-06-05 14:39:00,
2013-06-05 07:44:00,57.1,52.3,29.99,NE,39,0.0,0.0,84,0.00,,---,0.00,132.00,VWS V14.01,2013-06-05 14:44:00,
2013-06-05 07:49:00,57.6,52.8,30.00,NE,39,0.0,1.0,84,0.00,,---,0.00,135.00,VWS V14.01,2013-06-05 14:49:00,
2013-06-05 07:54:00,58.1,53.0,30.00,NE,39,0.0,1.0,83,0.00,,---,0.00,156.00,VWS V14.01,2013-06-05 14:54:00,
2013-06-05 07:59:00,58.8,53.3,30.00,NE,39,0.0,1.0,82,0.00,,---,0.00,162.00,VWS V14.01,2013-06-05 14:59:00,
2013-06-05 08:04:00,59.1,52.9,30.00,NE,39,0.0,1.0,80,0.00,,---,0.00,213.00,VWS V14.01,2013-06-05 15:04:00,
2013-06-05 08:09:00,59.7,53.2,30.00,NE,39,0.0,1.0,79,0.00,,---,0.00,186.00,VWS V14.01,2013-06-05 15:09:00,
2013-06-05 08:14:00,60.2,53.3,30.00,NE,39,1.0,2.0,78,0.00,,---,0.00,209.00,VWS V14.01,2013-06-05 15:14:00,
2013-06-05 08:19:00,60.6,53.0,30.01,NE,39,0.0,2.0,76,0.00,,---,0.00,207.00,VWS V14.01,2013-06-05 15:19:00,
2013-06-05 08:24:00,61.0,53.4,30.01,NE,39,0.0,1.0,76,0.00,,---,0.00,250.00,VWS V14.01,2013-06-05 15:24:00,
2013-06-05 08:29:00,61.8,53.4,30.01,NE,39,0.0,1.0,74,0.00,,---,0.00,406.00,VWS V14.01,2013-06-05 15:29:00,
2013-06-05 08:34:00,62.3,53.9,30.01,NE,39,0.0,1.0,74,0.00,,---,0.00,306.00,VWS V14.01,2013-06-05 15:34:00,
2013-06-05 08:39:00,63.1,53.6,30.01,NE,39,0.0,2.0,71,0.00,,---,0.00,260.00,VWS V14.01,2013-06-05 15:39:00,
2013-06-05 08:44:00,64.0,54.0,30.01,NE,39,0.0,3.0,70,0.00,,---,0.00,288.00,VWS V14.01,2013-06-05 15:44:00,
2013-06-05 08:49:00,64.6,54.6,30.01,NE,39,0.0,2.0,70,0.00,,---,0.00,302.00,VWS V14.01,2013-06-05 15:49:00,
2013-06-05 08:54:00,65.1,54.7,30.01,NE,39,0.0,2.0,69,0.00,,---,0.00,264.00,VWS V14.01,2013-06-05 15:54:00,
2013-06-05 08:59:00,65.2,54.0,30.01,NE,39,0.0,1.0,67,0.00,,---,0.00,230.00,VWS V14.01,2013-06-05 15:59:00,
2013-06-05 09:04:00,65.5,55.1,30.01,NE,39,0.0,0.0,69,0.00,,---,0.00,271.00,VWS V14.01,2013-06-05 16:04:00,
2013-06-05 09:09:00,65.6,54.0,30.01,NE,39,0.0,0.0,66,0.00,,---,0.00,248.00,VWS V14.01,2013-06-05 16:09:00,
2013-06-05 09:14:00,65.7,54.5,30.00,NE,39,0.0,0.0,67,0.00,,---,0.00,304.00,VWS V14.01,2013-06-05 16:14:00,
2013-06-05 09:19:00,66.1,54.8,30.01,NE,39,0.0,0.0,67,0.00,,---,0.00,348.00,VWS V14.01,2013-06-05 16:19:00,
2013-06-05 09:24:00,66.6,54.9,30.01,NE,39,0.0,1.0,66,0.00,,---,0.00,357.00,VWS V14.01,2013-06-05 16:24:00,
2013-06-05 09:29:00,67.6,55.8,30.01,NE,39,0.0,1.0,66,0.00,,---,0.00,515.00,VWS V14.01,2013-06-05 16:29:00,
2013-06-05 09:34:00,68.8,55.3,30.01,NE,44,2.0,2.0,62,0.00,,---,0.00,691.00,VWS V14.01,2013-06-05 16:34:00,
2013-06-05 09:39:00,70.2,56.6,30.01,WSW,247,0.0,5.0,62,0.00,,---,0.00,737.00,VWS V14.01,2013-06-05 16:39:00,
2013-06-05 09:44:00,71.2,56.2,30.01,ENE,61,0.0,4.0,59,0.00,,---,0.00,548.00,VWS V14.01,2013-06-05 16:44:00,
2013-06-05 09:49:00,72.0,56.4,30.01,NNW,339,0.0,4.0,58,0.00,,---,0.00,431.00,VWS V14.01,2013-06-05 16:49:00,
2013-06-05 09:54:00,73.0,58.3,30.01,West,274,2.0,4.0,60,0.00,,---,0.00,566.00,VWS V14.01,2013-06-05 16:54:00,
2013-06-05 09:59:00,73.5,57.8,30.00,West,260,2.0,5.0,58,0.00,,---,0.00,522.00,VWS V14.01,2013-06-05 16:59:00,
2013-06-05 10:04:00,74.2,58.0,30.00,WNW,293,3.0,5.0,57,0.00,,---,0.00,543.00,VWS V14.01,2013-06-05 17:04:00,
2013-06-05 10:09:00,74.9,57.7,30.01,West,273,1.0,5.0,55,0.00,,---,0.00,457.00,VWS V14.01,2013-06-05 17:09:00,
2013-06-05 10:14:00,75.5,57.7,30.01,West,267,2.0,5.0,54,0.00,,---,0.00,621.00,VWS V14.01,2013-06-05 17:14:00,
2013-06-05 10:19:00,76.1,58.3,30.01,West,265,1.0,5.0,54,0.00,,---,0.00,673.00,VWS V14.01,2013-06-05 17:19:00,
2013-06-05 10:24:00,76.5,57.0,30.01,West,276,0.0,4.0,51,0.00,,---,0.00,397.00,VWS V14.01,2013-06-05 17:24:00,
2013-06-05 10:29:00,76.1,57.2,30.01,ESE,112,0.0,4.0,52,0.00,,---,0.00,432.00,VWS V14.01,2013-06-05 17:29:00,
2013-06-05 10:34:00,75.6,58.3,30.01,SW,216,0.0,4.0,55,0.00,,---,0.00,459.00,VWS V14.01,2013-06-05 17:34:00,
2013-06-05 10:39:00,75.8,57.5,30.00,West,269,3.0,5.0,53,0.00,,---,0.00,923.00,VWS V14.01,2013-06-05 17:39:00,
2013-06-05 10:44:00,76.6,57.7,30.00,WSW,254,0.0,5.0,52,0.00,,---,0.00,624.00,VWS V14.01,2013-06-05 17:44:00,
2013-06-05 10:49:00,76.4,57.5,30.00,East,91,1.0,6.0,52,0.00,,---,0.00,480.00,VWS V14.01,2013-06-05 17:49:00,
2013-06-05 10:54:00,76.5,57.6,30.01,East,93,0.0,6.0,52,0.00,,---,0.00,603.00,VWS V14.01,2013-06-05 17:54:00,
2013-06-05 10:59:00,76.7,58.3,30.00,East,85,1.0,4.0,53,0.00,,---,0.00,548.00,VWS V14.01,2013-06-05 17:59:00,
2013-06-05 11:04:00,77.3,57.2,30.01,West,273,0.0,4.0,50,0.00,,---,0.00,497.00,VWS V14.01,2013-06-05 18:04:00,
2013-06-05 11:09:00,77.8,57.7,30.01,ENE,72,4.0,4.0,50,0.00,,---,0.00,751.00,VWS V14.01,2013-06-05 18:09:00,
2013-06-05 11:14:00,78.3,56.4,30.01,East,80,3.0,4.0,47,0.00,,---,0.00,515.00,VWS V14.01,2013-06-05 18:14:00,
2013-06-05 11:19:00,78.2,57.5,30.01,NW,325,0.0,4.0,49,0.00,,---,0.00,554.00,VWS V14.01,2013-06-05 18:19:00,
2013-06-05 11:24:00,78.4,57.7,30.00,SW,229,2.0,4.0,49,0.00,,---,0.00,468.00,VWS V14.01,2013-06-05 18:24:00,
2013-06-05 11:29:00,78.5,58.9,30.01,West,261,4.0,5.0,51,0.00,,---,0.00,919.00,VWS V14.01,2013-06-05 18:29:00,
2013-06-05 11:34:00,79.1,59.4,30.00,West,261,4.0,5.0,51,0.00,,---,0.00,933.00,VWS V14.01,2013-06-05 18:34:00,
2013-06-05 11:39:00,79.9,59.0,30.00,WNW,303,2.0,6.0,49,0.00,,---,0.00,923.00,VWS V14.01,2013-06-05 18:39:00,
2013-06-05 11:44:00,81.0,59.5,30.00,WNW,289,0.0,6.0,48,0.00,,---,0.00,889.00,VWS V14.01,2013-06-05 18:44:00,
2013-06-05 11:49:00,81.8,59.6,30.00,SSE,157,2.0,5.0,47,0.00,,---,0.00,902.00,VWS V14.01,2013-06-05 18:49:00,
2013-06-05 11:54:00,82.3,58.2,30.00,WNW,285,0.0,5.0,44,0.00,,---,0.00,928.00,VWS V14.01,2013-06-05 18:54:00,
2013-06-05 11:59:00,82.2,58.8,30.00,WSW,246,2.0,5.0,45,0.00,,---,0.00,930.00,VWS V14.01,2013-06-05 18:59:00,
2013-06-05 12:05:00,82.7,58.6,30.00,West,275,2.0,7.0,44,0.00,,---,0.00,900.00,VWS V14.01,2013-06-05 19:05:00,
2013-06-05 12:10:00,83.4,58.6,30.00,NW,304,1.0,5.0,43,0.00,,---,0.00,905.00,VWS V14.01,2013-06-05 19:10:00,
2013-06-05 12:15:00,84.1,58.5,30.00,SW,223,0.0,5.0,42,0.00,,---,0.00,946.00,VWS V14.01,2013-06-05 19:15:00,
2013-06-05 12:20:00,84.1,61.1,30.00,WSW,248,1.0,5.0,46,0.00,,---,0.00,979.00,VWS V14.01,2013-06-05 19:20:00,
2013-06-05 12:25:00,84.6,58.3,30.00,West,274,1.0,4.0,41,0.00,,---,0.00,969.00,VWS V14.01,2013-06-05 19:25:00,
2013-06-05 12:30:00,84.9,57.9,30.00,South,190,0.0,5.0,40,0.00,,---,0.00,895.00,VWS V14.01,2013-06-05 19:30:00,
2013-06-05 12:35:00,84.7,59.1,30.00,NNW,340,1.0,5.0,42,0.00,,---,0.00,946.00,VWS V14.01,2013-06-05 19:35:00,
2013-06-05 12:40:00,84.1,58.5,30.00,SW,223,0.0,5.0,42,0.00,,---,0.00,904.00,VWS V14.01,2013-06-05 19:40:00,
2013-06-05 12:45:00,84.3,59.4,30.00,West,269,0.0,5.0,43,0.00,,---,0.00,958.00,VWS V14.01,2013-06-05 19:45:00,
2013-06-05 12:50:00,84.4,58.8,30.00,ENE,57,0.0,5.0,42,0.00,,---,0.00,972.00,VWS V14.01,2013-06-05 19:50:00,
2013-06-05 12:55:00,84.0,59.1,30.00,WNW,296,1.0,4.0,43,0.00,,---,0.00,977.00,VWS V14.01,2013-06-05 19:55:00,
2013-06-05 13:00:00,84.4,60.8,30.00,West,269,0.0,8.0,45,0.00,,---,0.00,956.00,VWS V14.01,2013-06-05 20:00:00,
2013-06-05 13:05:00,85.0,59.4,30.00,West,275,3.0,8.0,42,0.00,,---,0.00,986.00,VWS V14.01,2013-06-05 20:05:00,
2013-06-05 13:10:00,85.5,59.8,30.00,WSW,246,2.0,8.0,42,0.00,,---,0.00,991.00,VWS V14.01,2013-06-05 20:10:00,
2013-06-05 13:15:00,85.2,59.5,30.00,WSW,256,4.0,6.0,42,0.00,,---,0.00,865.00,VWS V14.01,2013-06-05 20:15:00,
2013-06-05 13:20:00,85.3,60.9,30.00,SSW,209,2.0,9.0,44,0.00,,---,0.00,972.00,VWS V14.01,2013-06-05 20:20:00,
2013-06-05 13:25:00,85.9,59.5,30.00,SSW,213,3.0,9.0,41,0.00,,---,0.00,909.00,VWS V14.01,2013-06-05 20:25:00,
2013-06-05 13:30:00,86.2,59.1,30.00,WNW,286,2.0,9.0,40,0.00,,---,0.00,967.00,VWS V14.01,2013-06-05 20:30:00,
2013-06-05 13:35:00,86.3,59.2,30.00,WSW,253,1.0,8.0,40,0.00,,---,0.00,937.00,VWS V14.01,2013-06-05 20:35:00,
2013-06-05 13:40:00,86.5,59.3,30.00,WNW,301,3.0,10.0,40,0.00,,---,0.00,898.00,VWS V14.01,2013-06-05 20:40:00,
2013-06-05 13:45:00,86.7,59.5,30.00,WNW,290,1.0,7.0,40,0.00,,---,0.00,918.00,VWS V14.01,2013-06-05 20:45:00,
2013-06-05 13:50:00,86.9,59.0,30.00,West,264,3.0,7.0,39,0.00,,---,0.00,912.00,VWS V14.01,2013-06-05 20:50:00,
2013-06-05 13:55:00,87.0,59.1,30.00,WSW,248,0.0,7.0,39,0.00,,---,0.00,844.00,VWS V14.01,2013-06-05 20:55:00,
2013-06-05 14:00:00,87.1,59.9,30.00,West,271,0.0,7.0,40,0.00,,---,0.00,916.00,VWS V14.01,2013-06-05 21:00:00,
2013-06-05 14:05:00,86.5,60.0,30.00,WNW,287,2.0,6.0,41,0.00,,---,0.00,904.00,VWS V14.01,2013-06-05 21:05:00,
2013-06-05 14:10:00,86.3,59.2,30.00,SW,227,1.0,7.0,40,0.00,,---,0.00,921.00,VWS V14.01,2013-06-05 21:10:00,
2013-06-05 14:15:00,85.9,58.8,30.00,WSW,248,0.0,7.0,40,0.00,,---,0.00,861.00,VWS V14.01,2013-06-05 21:15:00,
2013-06-05 14:20:00,85.2,58.9,30.00,West,268,0.0,7.0,41,0.00,,---,0.00,925.00,VWS V14.01,2013-06-05 21:20:00,
2013-06-05 14:25:00,85.3,60.3,29.99,WSW,257,3.0,9.0,43,0.00,,---,0.00,914.00,VWS V14.01,2013-06-05 21:25:00,
2013-06-05 14:30:00,85.4,59.7,29.99,West,262,1.0,9.0,42,0.00,,---,0.00,918.00,VWS V14.01,2013-06-05 21:30:00,
2013-06-05 14:35:00,85.6,59.9,29.99,WSW,258,5.0,7.0,42,0.00,,---,0.00,900.00,VWS V14.01,2013-06-05 21:35:00,
2013-06-05 14:40:00,85.9,60.8,29.99,SW,227,2.0,11.0,43,0.00,,---,0.00,907.00,VWS V14.01,2013-06-05 21:40:00,
2013-06-05 14:45:00,85.0,60.0,29.99,SW,220,1.0,7.0,43,0.00,,---,0.00,900.00,VWS V14.01,2013-06-05 21:45:00,
2013-06-05 14:50:00,85.5,59.8,29.98,WSW,257,3.0,7.0,42,0.00,,---,0.00,823.00,VWS V14.01,2013-06-05 21:50:00,
2013-06-05 14:55:00,85.8,61.4,29.98,WNW,288,2.0,7.0,44,0.00,,---,0.00,877.00,VWS V14.01,2013-06-05 21:55:00,
2013-06-05 15:00:00,86.1,59.7,29.98,WSW,237,4.0,7.0,41,0.00,,---,0.00,846.00,VWS V14.01,2013-06-05 22:00:00,
2013-06-05 15:05:00,86.4,59.9,29.98,WSW,257,4.0,9.0,41,0.00,,---,0.00,856.00,VWS V14.01,2013-06-05 22:05:00,
2013-06-05 15:10:00,86.6,58.7,29.98,SSE,166,2.0,9.0,39,0.00,,---,0.00,847.00,VWS V14.01,2013-06-05 22:10:00,
2013-06-05 15:15:00,86.4,59.9,29.98,NW,315,3.0,7.0,41,0.00,,---,0.00,854.00,VWS V14.01,2013-06-05 22:15:00,
2013-06-05 15:20:00,86.8,58.9,29.98,SSW,205,2.0,10.0,39,0.00,,---,0.00,828.00,VWS V14.01,2013-06-05 22:20:00,
2013-06-05 15:25:00,87.0,59.1,29.98,WNW,285,0.0,10.0,39,0.00,,---,0.00,793.00,VWS V14.01,2013-06-05 22:25:00,
2013-06-05 15:30:00,87.1,59.9,29.98,SW,234,2.0,8.0,40,0.00,,---,0.00,816.00,VWS V14.01,2013-06-05 22:30:00,
2013-06-05 15:35:00,87.1,59.2,29.98,WSW,243,2.0,7.0,39,0.00,,---,0.00,821.00,VWS V14.01,2013-06-05 22:35:00,
2013-06-05 15:40:00,87.2,59.2,29.97,WSW,240,0.0,6.0,39,0.00,,---,0.00,773.00,VWS V14.01,2013-06-05 22:40:00,
2013-06-05 15:45:00,87.0,59.1,29.97,WSW,257,2.0,6.0,39,0.00,,---,0.00,707.00,VWS V14.01,2013-06-05 22:45:00,
2013-06-05 15:50:00,86.9,57.5,29.97,WSW,245,2.0,6.0,37,0.00,,---,0.00,668.00,VWS V14.01,2013-06-05 22:50:00,
2013-06-05 15:55:00,86.2,59.1,29.97,West,260,3.0,6.0,40,0.00,,---,0.00,606.00,VWS V14.01,2013-06-05 22:55:00,
2013-06-05 16:00:00,85.8,58.7,29.97,West,265,1.0,7.0,40,0.00,,---,0.00,592.00,VWS V14.01,2013-06-05 23:00:00,
2013-06-05 16:05:00,85.4,58.4,29.97,WNW,293,1.0,6.0,40,0.00,,---,0.00,497.00,VWS V14.01,2013-06-05 23:05:00,
2013-06-05 16:10:00,85.2,58.2,29.97,WSW,246,3.0,7.0,40,0.00,,---,0.00,436.00,VWS V14.01,2013-06-05 23:10:00,
2013-06-05 16:15:00,84.8,58.5,29.97,WSW,257,4.0,7.0,41,0.00,,---,0.00,643.00,VWS V14.01,2013-06-05 23:15:00,
2013-06-05 16:20:00,84.7,59.1,29.97,West,273,0.0,7.0,42,0.00,,---,0.00,668.00,VWS V14.01,2013-06-05 23:20:00,
2013-06-05 16:25:00,84.3,60.0,29.97,West,269,4.0,7.0,44,0.00,,---,0.00,643.00,VWS V14.01,2013-06-05 23:25:00,
2013-06-05 16:30:00,84.2,58.0,29.97,WSW,249,2.0,9.0,41,0.00,,---,0.00,610.00,VWS V14.01,2013-06-05 23:30:00,
2013-06-05 16:35:00,83.9,59.0,29.97,West,263,4.0,9.0,43,0.00,,---,0.00,606.00,VWS V14.01,2013-06-05 23:35:00,
2013-06-05 16:40:00,83.9,58.4,29.96,NNW,336,0.0,6.0,42,0.00,,---,0.00,555.00,VWS V14.01,2013-06-05 23:40:00,
2013-06-05 16:45:00,83.8,58.3,29.96,WNW,286,8.0,11.0,42,0.00,,---,0.00,513.00,VWS V14.01,2013-06-05 23:45:00,
2013-06-05 16:50:00,83.7,58.8,29.96,WNW,296,0.0,11.0,43,0.00,,---,0.00,445.00,VWS V14.01,2013-06-05 23:50:00,
2013-06-05 16:55:00,83.7,58.8,29.96,South,184,1.0,7.0,43,0.00,,---,0.00,383.00,VWS V14.01,2013-06-05 23:55:00,
2013-06-05 17:00:00,83.6,58.8,29.96,South,175,5.0,7.0,43,0.00,,---,0.00,350.00,VWS V14.01,2013-06-06 00:00:00,
2013-06-05 17:05:00,82.7,58.6,29.96,WSW,246,3.0,7.0,44,0.00,,---,0.00,390.00,VWS V14.01,2013-06-06 00:05:00,
2013-06-05 17:10:00,82.3,58.9,29.96,NW,307,1.0,7.0,45,0.00,,---,0.00,383.00,VWS V14.01,2013-06-06 00:10:00,
2013-06-05 17:16:00,81.8,58.4,29.95,WNW,299,0.0,8.0,45,0.00,,---,0.00,304.00,VWS V14.01,2013-06-06 00:16:00,
2013-06-05 17:21:00,81.2,59.1,29.96,NW,304,6.0,8.0,47,0.00,,---,0.00,320.00,VWS V14.01,2013-06-06 00:21:00,
2013-06-05 17:26:00,80.7,58.6,29.96,WSW,250,5.0,7.0,47,0.00,,---,0.00,148.00,VWS V14.01,2013-06-06 00:26:00,
2013-06-05 17:31:00,80.3,57.7,29.95,NW,313,4.0,7.0,46,0.00,,---,0.00,128.00,VWS V14.01,2013-06-06 00:31:00,
2013-06-05 17:36:00,80.0,58.6,29.95,WNW,287,3.0,8.0,48,0.00,,---,0.00,120.00,VWS V14.01,2013-06-06 00:36:00,
2013-06-05 17:41:00,79.8,57.8,29.95,SSW,213,0.0,8.0,47,0.00,,---,0.00,105.00,VWS V14.01,2013-06-06 00:41:00,
2013-06-05 17:46:00,79.2,58.4,29.95,West,280,2.0,4.0,49,0.00,,---,0.00,93.00,VWS V14.01,2013-06-06 00:46:00,
2013-06-05 17:51:00,78.8,56.9,29.95,WNW,295,3.0,7.0,47,0.00,,---,0.00,93.00,VWS V14.01,2013-06-06 00:51:00,
2013-06-05 17:56:00,78.5,57.2,29.95,West,270,2.0,7.0,48,0.00,,---,0.00,91.00,VWS V14.01,2013-06-06 00:56:00,
2013-06-05 18:01:00,78.2,57.5,29.95,West,280,6.0,7.0,49,0.00,,---,0.00,95.00,VWS V14.01,2013-06-06 01:01:00,
2013-06-05 18:06:00,77.9,57.2,29.95,WNW,286,0.0,7.0,49,0.00,,---,0.00,97.00,VWS V14.01,2013-06-06 01:06:00,
2013-06-05 18:11:00,77.6,57.0,29.95,WNW,298,0.0,6.0,49,0.00,,---,0.00,95.00,VWS V14.01,2013-06-06 01:11:00,
2013-06-05 18:16:00,77.3,57.8,29.95,West,278,5.0,7.0,51,0.00,,---,0.00,97.00,VWS V14.01,2013-06-06 01:16:00,
2013-06-05 18:21:00,77.0,58.0,29.95,NW,309,1.0,7.0,52,0.00,,---,0.00,100.00,VWS V14.01,2013-06-06 01:21:00,
2013-06-05 18:26:00,76.6,58.2,29.95,WSW,244,1.0,7.0,53,0.00,,---,0.00,102.00,VWS V14.01,2013-06-06 01:26:00,
2013-06-05 18:31:00,76.5,58.1,29.95,WNW,298,1.0,5.0,53,0.00,,---,0.00,95.00,VWS V14.01,2013-06-06 01:31:00,
2013-06-05 18:36:00,76.2,57.8,29.95,West,276,4.0,4.0,53,0.00,,---,0.00,79.00,VWS V14.01,2013-06-06 01:36:00,
2013-06-05 18:41:00,76.0,57.1,29.95,WSW,248,1.0,4.0,52,0.00,,---,0.00,72.00,VWS V14.01,2013-06-06 01:41:00,
2013-06-05 18:46:00,75.6,56.8,29.95,NNE,22,0.0,4.0,52,0.00,,---,0.00,72.00,VWS V14.01,2013-06-06 01:46:00,
2013-06-05 18:51:00,75.3,56.5,29.95,NW,309,0.0,6.0,52,0.00,,---,0.00,69.00,VWS V14.01,2013-06-06 01:51:00,
2013-06-05 18:56:00,75.0,56.2,29.95,West,277,0.0,6.0,52,0.00,,---,0.00,54.00,VWS V14.01,2013-06-06 01:56:00,
2013-06-05 19:01:00,74.6,55.8,29.95,NW,319,0.0,3.0,52,0.00,,---,0.00,42.00,VWS V14.01,2013-06-06 02:01:00,
2013-06-05 19:06:00,74.3,55.6,29.95,NW,319,2.0,2.0,52,0.00,,---,0.00,39.00,VWS V14.01,2013-06-06 02:06:00,
2013-06-05 19:11:00,73.9,55.7,29.95,NW,313,0.0,2.0,53,0.00,,---,0.00,49.00,VWS V14.01,2013-06-06 02:11:00,
2013-06-05 19:16:00,73.7,56.5,29.95,West,275,2.0,3.0,55,0.00,,---,0.00,58.00,VWS V14.01,2013-06-06 02:16:00,
2013-06-05 19:21:00,73.4,55.2,29.95,West,274,0.0,3.0,53,0.00,,---,0.00,63.00,VWS V14.01,2013-06-06 02:21:00,
2013-06-05 19:26:00,73.2,56.1,29.95,West,274,0.0,3.0,55,0.00,,---,0.00,63.00,VWS V14.01,2013-06-06 02:26:00,
2013-06-05 19:31:00,73.1,56.5,29.95,WSW,253,0.0,3.0,56,0.00,,---,0.00,58.00,VWS V14.01,2013-06-06 02:31:00,
2013-06-05 19:36:00,72.9,56.8,29.95,WSW,253,0.0,3.0,57,0.00,,---,0.00,51.00,VWS V14.01,2013-06-06 02:36:00,
2013-06-05 19:41:00,72.6,56.5,29.95,WSW,253,0.0,2.0,57,0.00,,---,0.00,40.00,VWS V14.01,2013-06-06 02:41:00,
2013-06-05 19:46:00,72.4,56.3,29.95,WSW,253,0.0,2.0,57,0.00,,---,0.00,32.00,VWS V14.01,2013-06-06 02:46:00,
2013-06-05 19:51:00,72.1,56.5,29.95,WSW,252,0.0,2.0,58,0.00,,---,0.00,26.00,VWS V14.01,2013-06-06 02:51:00,
2013-06-05 19:56:00,71.7,56.2,29.95,WSW,252,0.0,2.0,58,0.00,,---,0.00,28.00,VWS V14.01,2013-06-06 02:56:00,
2013-06-05 20:01:00,71.4,56.3,29.95,WSW,252,1.0,2.0,59,0.00,,---,0.00,30.00,VWS V14.01,2013-06-06 03:01:00,
2013-06-05 20:06:00,71.0,55.5,29.95,WSW,248,0.0,2.0,58,0.00,,---,0.00,28.00,VWS V14.01,2013-06-06 03:06:00,
2013-06-05 20:11:00,70.6,54.6,29.95,WSW,245,0.0,2.0,57,0.00,,---,0.00,25.00,VWS V14.01,2013-06-06 03:11:00,
2013-06-05 20:16:00,70.2,53.8,29.95,WSW,245,0.0,1.0,56,0.00,,---,0.00,21.00,VWS V14.01,2013-06-06 03:16:00,
2013-06-05 20:21:00,69.8,53.9,29.95,WNW,286,0.0,1.0,57,0.00,,---,0.00,18.00,VWS V14.01,2013-06-06 03:21:00,
2013-06-05 20:26:00,69.3,53.9,29.95,WNW,286,0.0,1.0,58,0.00,,---,0.00,14.00,VWS V14.01,2013-06-06 03:26:00,
2013-06-05 20:31:00,68.9,53.5,29.95,West,281,0.0,1.0,58,0.00,,---,0.00,12.00,VWS V14.01,2013-06-06 03:31:00,
2013-06-05 20:36:00,68.6,53.7,29.95,NW,318,1.0,1.0,59,0.00,,---,0.00,11.00,VWS V14.01,2013-06-06 03:36:00,
2013-06-05 20:41:00,68.2,53.8,29.95,NW,318,0.0,2.0,60,0.00,,---,0.00,9.00,VWS V14.01,2013-06-06 03:41:00,
2013-06-05 20:46:00,67.8,53.4,29.95,WNW,302,0.0,1.0,60,0.00,,---,0.00,5.00,VWS V14.01,2013-06-06 03:46:00,
2013-06-05 20:51:00,67.3,53.8,29.96,WNW,289,0.0,2.0,62,0.00,,---,0.00,0.00,VWS V14.01,2013-06-06 03:51:00,
2013-06-05 20:56:00,66.9,53.5,29.95,WNW,286,0.0,2.0,62,0.00,,---,0.00,0.00,VWS V14.01,2013-06-06 03:56:00,
2013-06-05 21:01:00,66.5,53.5,29.96,WNW,286,0.0,2.0,63,0.00,,---,0.00,0.00,VWS V14.01,2013-06-06 04:01:00,
2013-06-05 21:07:00,66.0,53.9,29.96,WNW,286,0.0,0.0,65,0.00,,---,0.00,0.00,VWS V14.01,2013-06-06 04:07:00,
2013-06-05 21:12:00,65.6,54.0,29.96,WNW,286,0.0,0.0,66,0.00,,---,0.00,0.00,VWS V14.01,2013-06-06 04:12:00,
2013-06-05 21:17:00,65.2,53.6,29.96,WNW,286,0.0,1.0,66,0.00,,---,0.00,0.00,VWS V14.01,2013-06-06 04:17:00,
2013-06-05 21:22:00,64.8,53.6,29.96,WNW,286,0.0,3.0,67,0.00,,---,0.00,0.00,VWS V14.01,2013-06-06 04:22:00,
2013-06-05 21:27:00,64.4,53.6,29.96,West,270,0.0,3.0,68,0.00,,---,0.00,0.00,VWS V14.01,2013-06-06 04:27:00,
2013-06-05 21:32:00,64.0,53.2,29.96,WSW,249,0.0,5.0,68,0.00,,---,0.00,0.00,VWS V14.01,2013-06-06 04:32:00,
2013-06-05 21:37:00,63.7,53.3,29.96,WSW,249,0.0,5.0,69,0.00,,---,0.00,0.00,VWS V14.01,2013-06-06 04:37:00,
2013-06-05 21:42:00,63.4,53.5,29.96,WNW,302,0.0,5.0,70,0.00,,---,0.00,0.00,VWS V14.01,2013-06-06 04:42:00,
2013-06-05 21:47:00,63.2,53.3,29.96,WNW,299,0.0,4.0,70,0.00,,---,0.00,0.00,VWS V14.01,2013-06-06 04:47:00,
2013-06-05 21:52:00,63.0,53.5,29.96,WNW,299,1.0,4.0,71,0.00,,---,0.00,0.00,VWS V14.01,2013-06-06 04:52:00,
2013-06-05 21:57:00,62.7,53.2,29.97,West,277,0.0,3.0,71,0.00,,---,0.00,0.00,VWS V14.01,2013-06-06 04:57:00,
2013-06-05 22:02:00,62.5,53.4,29.97,WNW,286,0.0,3.0,72,0.00,,---,0.00,0.00,VWS V14.01,2013-06-06 05:02:00,
2013-06-05 22:07:00,62.2,53.1,29.97,West,269,0.0,4.0,72,0.00,,---,0.00,0.00,VWS V14.01,2013-06-06 05:07:00,
2013-06-05 22:12:00,62.0,53.3,29.97,West,269,0.0,4.0,73,0.00,,---,0.00,0.00,VWS V14.01,2013-06-06 05:12:00,
2013-06-05 22:17:00,61.8,53.1,29.97,WSW,255,0.0,1.0,73,0.00,,---,0.00,0.00,VWS V14.01,2013-06-06 05:17:00,
2013-06-05 22:22:00,61.6,52.9,29.97,South,186,0.0,1.0,73,0.00,,---,0.00,0.00,VWS V14.01,2013-06-06 05:22:00,
2013-06-05 22:27:00,61.4,53.0,29.97,South,186,0.0,1.0,74,0.00,,---,0.00,0.00,VWS V14.01,2013-06-06 05:27:00,
2013-06-05 22:32:00,61.1,52.8,29.97,South,186,0.0,0.0,74,0.00,,---,0.00,0.00,VWS V14.01,2013-06-06 05:32:00,
2013-06-05 22:37:00,60.9,52.9,29.97,South,186,0.0,0.0,75,0.00,,---,0.00,0.00,VWS V14.01,2013-06-06 05:37:00,
2013-06-05 22:42:00,60.7,52.7,29.97,South,186,0.0,0.0,75,0.00,,---,0.00,0.00,VWS V14.01,2013-06-06 05:42:00,
2013-06-05 22:47:00,60.5,52.9,29.97,South,187,0.0,0.0,76,0.00,,---,0.00,0.00,VWS V14.01,2013-06-06 05:47:00,
2013-06-05 22:52:00,60.3,52.7,29.97,South,187,0.0,0.0,76,0.00,,---,0.00,0.00,VWS V14.01,2013-06-06 05:52:00,
2013-06-05 22:57:00,60.1,52.5,29.97,South,187,0.0,0.0,76,0.00,,---,0.00,0.00,VWS V14.01,2013-06-06 05:57:00,
2013-06-05 23:02:00,59.9,52.7,29.97,South,187,0.0,0.0,77,0.00,,---,0.00,0.00,VWS V14.01,2013-06-06 06:02:00,
2013-06-05 23:07:00,59.7,52.8,29.97,South,187,0.0,1.0,78,0.00,,---,0.00,0.00,VWS V14.01,2013-06-06 06:07:00,
2013-06-05 23:12:00,59.5,52.6,29.97,South,187,0.0,0.0,78,0.00,,---,0.00,0.00,VWS V14.01,2013-06-06 06:12:00,
2013-06-05 23:17:00,59.3,52.8,29.97,South,187,0.0,0.0,79,0.00,,---,0.00,0.00,VWS V14.01,2013-06-06 06:17:00,
2013-06-05 23:22:00,59.0,52.5,29.97,South,187,0.0,2.0,79,0.00,,---,0.00,0.00,VWS V14.01,2013-06-06 06:22:00,
2013-06-05 23:27:00,59.0,52.5,29.97,South,187,0.0,2.0,79,0.00,,---,0.00,0.00,VWS V14.01,2013-06-06 06:27:00,
2013-06-05 23:32:00,59.0,52.8,29.97,South,187,0.0,0.0,80,0.00,,---,0.00,0.00,VWS V14.01,2013-06-06 06:32:00,
2013-06-05 23:37:00,59.0,52.8,29.97,South,187,0.0,0.0,80,0.00,,---,0.00,0.00,VWS V14.01,2013-06-06 06:37:00,
2013-06-05 23:42:00,58.7,52.6,29.97,South,187,0.0,0.0,80,0.00,,---,0.00,0.00,VWS V14.01,2013-06-06 06:42:00,
2013-06-05 23:47:00,58.6,52.5,29.97,South,187,0.0,0.0,80,0.00,,---,0.00,0.00,VWS V14.01,2013-06-06 06:47:00,
2013-06-05 23:52:00,58.4,52.6,29.97,South,187,0.0,0.0,81,0.00,,---,0.00,0.00,VWS V14.01,2013-06-06 06:52:00,
2013-06-05 23:57:00,58.3,52.5,29.97,South,187,0.0,0.0,81,0.00,,---,0.00,0.00,VWS V14.01,2013-06-06 06:57:00,